createdAt,value
2017-12-15T00:00:17.011Z,98530.48
2017-12-15T00:02:45.655Z,98528.36
2017-12-15T00:05:14.338Z,98527.09
2017-12-15T00:07:43.018Z,98528.41
2017-12-15T00:10:11.207Z,98523.24
2017-12-15T00:12:39.916Z,98529.17
2017-12-15T00:15:08.591Z,98532.56
2017-12-15T00:17:37.298Z,98537.59
2017-12-15T00:20:06.058Z,98537.05
2017-12-15T00:22:34.729Z,98531.16
2017-12-15T00:25:03.399Z,98534.97
2017-12-15T00:27:32.114Z,98530.71
2017-12-15T00:30:00.787Z,98533.38
2017-12-15T00:32:29.508Z,98530.30
2017-12-15T00:34:58.186Z,98530.27
2017-12-15T00:37:26.839Z,98529.36
2017-12-15T00:39:55.561Z,98522.24
2017-12-15T00:42:24.227Z,98524.33
2017-12-15T00:44:54.130Z,98517.58
2017-12-15T00:47:22.812Z,98523.83
2017-12-15T00:49:51.526Z,98517.13
2017-12-15T00:52:20.244Z,98522.61
2017-12-15T00:54:48.940Z,98528.27
2017-12-15T00:57:17.638Z,98532.43
2017-12-15T00:59:46.342Z,98523.14
2017-12-15T01:02:15.070Z,98531.70
2017-12-15T01:04:43.744Z,98535.51
2017-12-15T01:07:12.462Z,98529.17
2017-12-15T01:09:41.138Z,98527.95
2017-12-15T01:12:09.823Z,98528.03
2017-12-15T01:14:38.515Z,98533.56
2017-12-15T01:17:07.182Z,98536.09
2017-12-15T01:19:35.930Z,98534.91
2017-12-15T01:22:04.659Z,98537.49
2017-12-15T01:24:33.300Z,98542.61
2017-12-15T01:27:01.984Z,98537.53
2017-12-15T01:29:30.684Z,98540.44
2017-12-15T01:32:06.544Z,98538.48
2017-12-15T01:34:35.366Z,98542.28
2017-12-15T01:37:04.042Z,98541.38
2017-12-15T01:39:32.760Z,98547.40
2017-12-15T01:42:01.483Z,98549.44
2017-12-15T01:44:29.910Z,98552.39
2017-12-15T01:46:58.573Z,98556.15
2017-12-15T01:49:27.271Z,98551.16
2017-12-15T01:51:55.926Z,98556.15
2017-12-15T01:54:24.632Z,98558.36
2017-12-15T01:56:53.326Z,98559.18
2017-12-15T01:59:22.051Z,98555.70
2017-12-15T02:01:50.690Z,98564.16
2017-12-15T02:04:19.596Z,98562.89
2017-12-15T02:06:48.301Z,98557.87
2017-12-15T02:09:21.410Z,98561.63
2017-12-15T02:11:50.084Z,98554.47
2017-12-15T02:14:18.451Z,98557.50
2017-12-15T02:16:47.156Z,98554.88
2017-12-15T02:19:16.392Z,98560.86
2017-12-15T02:21:52.708Z,98565.44
2017-12-15T02:24:26.621Z,98560.41
2017-12-15T02:27:02.963Z,98562.61
2017-12-15T02:29:40.606Z,98563.44
2017-12-15T02:32:14.857Z,98567.23
2017-12-15T02:35:16.128Z,98568.95
2017-12-15T02:37:46.546Z,98574.07
2017-12-15T02:40:18.049Z,98577.92
2017-12-15T02:42:48.573Z,98574.97
2017-12-15T02:45:21.179Z,98573.30
2017-12-15T02:47:51.506Z,98576.25
2017-12-15T02:50:21.511Z,98570.35
2017-12-15T02:52:50.176Z,98576.69
2017-12-15T02:55:18.890Z,98579.23
2017-12-15T02:57:47.604Z,98577.11
2017-12-15T03:00:16.294Z,98581.77
2017-12-15T03:02:44.995Z,98585.17
2017-12-15T03:05:13.670Z,98589.79
2017-12-15T03:07:42.333Z,98596.63
2017-12-15T03:10:11.062Z,98593.64
2017-12-15T03:12:39.761Z,98590.24
2017-12-15T03:15:08.430Z,98594.86
2017-12-15T03:17:37.145Z,98597.44
2017-12-15T03:20:05.807Z,98601.24
2017-12-15T03:22:34.500Z,98603.73
2017-12-15T03:25:03.145Z,98602.52
2017-12-15T03:27:31.862Z,98599.94
2017-12-15T03:30:00.546Z,98605.91
2017-12-15T03:32:29.260Z,98601.61
2017-12-15T03:34:57.960Z,98605.86
2017-12-15T03:37:26.615Z,98608.45
2017-12-15T03:39:55.317Z,98614.74
2017-12-15T03:42:23.982Z,98609.27
2017-12-15T03:44:52.681Z,98616.50
2017-12-15T03:47:21.367Z,98616.50
2017-12-15T03:49:50.084Z,98618.18
2017-12-15T03:52:18.766Z,98619.48
2017-12-15T03:54:47.430Z,98618.62
2017-12-15T03:57:18.946Z,98616.09
2017-12-15T03:59:47.637Z,98620.80
2017-12-15T04:02:16.283Z,98621.16
2017-12-15T04:04:44.994Z,98618.62
2017-12-15T04:07:13.633Z,98622.88
2017-12-15T04:09:42.354Z,98621.61
2017-12-15T04:12:10.726Z,98625.79
2017-12-15T04:14:39.419Z,98628.36
2017-12-15T04:17:08.103Z,98629.63
2017-12-15T04:19:36.763Z,98635.16
2017-12-15T04:22:05.496Z,98633.06
2017-12-15T04:24:34.160Z,98638.55
2017-12-15T04:27:02.867Z,98638.14
2017-12-15T04:29:31.576Z,98639.45
2017-12-15T04:32:00.254Z,98636.55
2017-12-15T04:34:29.135Z,98642.39
2017-12-15T04:36:57.864Z,98644.11
2017-12-15T04:39:26.560Z,98643.70
2017-12-15T04:41:55.310Z,98645.42
2017-12-15T04:44:23.980Z,98646.65
2017-12-15T04:46:52.699Z,98647.92
2017-12-15T04:49:21.420Z,98642.92
2017-12-15T04:51:49.786Z,98652.21
2017-12-15T04:54:18.516Z,98646.23
2017-12-15T04:56:47.200Z,98649.63
2017-12-15T04:59:15.911Z,98652.95
2017-12-15T05:01:44.592Z,98649.22
2017-12-15T05:04:13.232Z,98651.31
2017-12-15T05:06:41.926Z,98658.92
2017-12-15T05:09:26.791Z,98666.48
2017-12-15T05:11:56.415Z,98669.02
2017-12-15T05:14:25.809Z,98666.89
2017-12-15T05:16:54.707Z,98670.33
2017-12-15T05:19:24.000Z,98667.42
2017-12-15T05:21:52.767Z,98674.63
2017-12-15T05:24:21.655Z,98678.02
2017-12-15T05:26:50.067Z,98688.98
2017-12-15T05:29:18.752Z,98684.36
2017-12-15T05:31:47.419Z,98688.61
2017-12-15T05:34:16.119Z,98691.11
2017-12-15T05:36:44.843Z,98699.53
2017-12-15T05:39:13.532Z,98695.69
2017-12-15T05:41:42.216Z,98701.20
2017-12-15T05:44:10.947Z,98704.64
2017-12-15T05:46:41.345Z,98708.45
2017-12-15T05:49:10.028Z,98703.38
2017-12-15T05:51:38.712Z,98716.91
2017-12-15T05:54:07.414Z,98714.42
2017-12-15T05:56:38.388Z,98717.00
2017-12-15T05:59:12.814Z,98718.22
2017-12-15T06:01:41.479Z,98724.56
2017-12-15T06:04:10.123Z,98720.80
2017-12-15T06:06:38.799Z,98722.89
2017-12-15T06:09:07.446Z,98727.09
2017-12-15T06:11:36.135Z,98729.64
2017-12-15T06:14:04.825Z,98730.00
2017-12-15T06:16:33.528Z,98733.84
2017-12-15T06:19:02.196Z,98736.34
2017-12-15T06:21:30.890Z,98744.89
2017-12-15T06:23:59.591Z,98747.42
2017-12-15T06:26:28.284Z,98740.19
2017-12-15T06:28:56.980Z,98747.80
2017-12-15T06:31:25.392Z,98752.09
2017-12-15T06:33:53.745Z,98749.96
2017-12-15T06:36:22.471Z,98759.28
2017-12-15T06:38:51.123Z,98758.55
2017-12-15T06:41:19.822Z,98760.27
2017-12-15T06:43:48.563Z,98764.94
2017-12-15T06:46:17.276Z,98759.86
2017-12-15T06:48:45.986Z,98774.74
2017-12-15T06:51:14.813Z,98776.88
2017-12-15T06:53:43.508Z,98778.14
2017-12-15T06:56:12.156Z,98774.78
2017-12-15T06:58:40.794Z,98782.42
2017-12-15T07:01:09.491Z,98775.76
2017-12-15T07:03:38.151Z,98780.75
2017-12-15T07:06:09.931Z,98783.77
2017-12-15T07:08:38.629Z,98796.91
2017-12-15T07:11:07.318Z,98796.98
2017-12-15T07:13:36.006Z,98795.22
2017-12-15T07:16:08.085Z,98796.86
2017-12-15T07:18:36.767Z,98801.19
2017-12-15T07:21:05.421Z,98799.52
2017-12-15T07:23:34.098Z,98799.96
2017-12-15T07:26:02.787Z,98803.77
2017-12-15T07:28:31.498Z,98808.39
2017-12-15T07:31:00.139Z,98799.11
2017-12-15T07:33:30.460Z,98805.00
2017-12-15T07:35:59.146Z,98801.64
2017-12-15T07:38:27.794Z,98803.36
2017-12-15T07:40:56.205Z,98820.25
2017-12-15T07:43:24.906Z,98814.77
2017-12-15T07:45:53.782Z,98824.91
2017-12-15T07:48:22.547Z,98825.39
2017-12-15T07:50:51.195Z,98831.28
2017-12-15T07:53:19.894Z,98829.64
2017-12-15T07:55:48.542Z,98832.14
2017-12-15T07:58:17.252Z,98826.70
2017-12-15T08:00:45.759Z,98833.86
2017-12-15T08:03:14.449Z,98830.50
2017-12-15T08:05:43.179Z,98836.84
2017-12-15T08:08:11.821Z,98850.78
2017-12-15T08:10:40.553Z,98853.69
2017-12-15T08:13:09.209Z,98852.05
2017-12-15T08:15:37.876Z,98854.52
2017-12-15T08:18:06.603Z,98858.72
2017-12-15T08:20:35.259Z,98856.64
2017-12-15T08:23:03.946Z,98863.34
2017-12-15T08:25:32.604Z,98862.98
2017-12-15T08:28:01.313Z,98867.64
2017-12-15T08:30:29.976Z,98878.16
2017-12-15T08:32:58.635Z,98878.52
2017-12-15T08:35:27.309Z,98878.08
2017-12-15T08:37:55.969Z,98886.54
2017-12-15T08:40:24.684Z,98888.22
2017-12-15T08:42:53.410Z,98890.34
2017-12-15T08:45:22.066Z,98889.08
2017-12-15T08:47:50.728Z,98895.49
2017-12-15T08:50:19.426Z,98895.45
2017-12-15T08:52:48.079Z,98896.39
2017-12-15T08:55:16.787Z,98895.97
2017-12-15T08:57:45.457Z,98897.28
2017-12-15T09:00:13.876Z,98903.17
2017-12-15T09:02:42.545Z,98907.84
2017-12-15T09:05:11.216Z,98907.02
2017-12-15T09:07:39.912Z,98905.38
2017-12-15T09:10:08.624Z,98914.22
2017-12-15T09:12:37.314Z,98915.11
2017-12-15T09:15:05.963Z,98914.25
2017-12-15T09:17:34.655Z,98920.22
2017-12-15T09:20:03.305Z,98926.55
2017-12-15T09:22:32.029Z,98927.78
2017-12-15T09:25:00.681Z,98925.28
2017-12-15T09:27:29.387Z,98934.13
2017-12-15T09:29:58.055Z,98934.05
2017-12-15T09:32:26.715Z,98938.26
2017-12-15T09:34:55.762Z,98942.02
2017-12-15T09:37:24.472Z,98937.73
2017-12-15T09:39:53.174Z,98937.73
2017-12-15T09:42:21.519Z,98939.00
2017-12-15T09:44:50.174Z,98944.04
2017-12-15T09:47:18.872Z,98950.45
2017-12-15T09:49:47.509Z,98957.13
2017-12-15T09:52:16.204Z,98952.95
2017-12-15T09:54:44.850Z,98958.77
2017-12-15T09:57:13.576Z,98957.46
2017-12-15T09:59:42.221Z,98962.45
2017-12-15T10:02:10.904Z,98962.39
2017-12-15T10:04:39.563Z,98959.78
2017-12-15T10:07:08.258Z,98973.28
2017-12-15T10:09:36.903Z,98976.59
2017-12-15T10:12:05.540Z,98971.00
2017-12-15T10:14:34.230Z,98978.50
2017-12-15T10:17:02.859Z,98984.84
2017-12-15T10:19:31.539Z,98987.75
2017-12-15T10:22:00.211Z,98992.30
2017-12-15T10:24:28.951Z,98990.66
2017-12-15T10:26:57.683Z,98995.98
2017-12-15T10:29:26.372Z,99004.80
2017-12-15T10:31:55.056Z,98997.14
2017-12-15T10:34:23.743Z,99000.42
2017-12-15T10:36:52.260Z,99003.71
2017-12-15T10:39:20.917Z,99011.66
2017-12-15T10:41:49.592Z,99005.66
2017-12-15T10:44:18.239Z,99005.61
2017-12-15T10:46:46.940Z,99001.32
2017-12-15T10:49:15.590Z,99005.42
2017-12-15T10:51:44.292Z,99013.34
2017-12-15T10:54:12.947Z,99004.49
2017-12-15T10:56:41.654Z,99001.44
2017-12-15T10:59:10.372Z,99005.58
2017-12-15T11:01:39.021Z,99008.48
2017-12-15T11:04:07.734Z,99006.28
2017-12-15T11:06:36.394Z,99017.66
2017-12-15T11:09:04.580Z,99014.19
2017-12-15T11:11:33.262Z,99023.00
2017-12-15T11:14:02.283Z,99025.87
2017-12-15T11:16:30.958Z,99022.36
2017-12-15T11:18:59.627Z,99027.77
2017-12-15T11:21:28.313Z,99032.69
2017-12-15T11:23:56.974Z,99033.77
2017-12-15T11:26:25.664Z,99032.45
2017-12-15T11:28:54.359Z,99040.41
2017-12-15T11:31:23.026Z,99041.48
2017-12-15T11:33:51.717Z,99051.08
2017-12-15T11:36:20.403Z,99051.53
2017-12-15T11:38:49.090Z,99061.20
2017-12-15T11:41:17.801Z,99060.30
2017-12-15T11:43:46.462Z,99062.80
2017-12-15T11:46:15.174Z,99062.80
2017-12-15T11:48:43.859Z,99062.80
2017-12-15T11:51:12.495Z,99069.52
2017-12-15T11:53:41.208Z,99066.08
2017-12-15T11:56:10.504Z,99070.70
2017-12-15T11:58:39.219Z,99068.55
2017-12-15T12:01:07.880Z,99079.59
2017-12-15T12:03:36.654Z,99077.84
2017-12-15T12:06:10.264Z,99076.16
2017-12-15T12:08:38.987Z,99081.23
2017-12-15T12:11:07.660Z,99089.59
2017-12-15T12:13:36.359Z,99089.94
2017-12-15T12:16:09.468Z,99088.67
2017-12-15T12:18:38.127Z,99090.72
2017-12-15T12:21:06.841Z,99091.55
2017-12-15T12:23:35.514Z,99098.78
2017-12-15T12:26:04.159Z,99100.39
2017-12-15T12:28:32.866Z,99097.85
2017-12-15T12:31:01.541Z,99099.52
2017-12-15T12:33:30.211Z,99110.91
2017-12-15T12:35:58.917Z,99110.02
2017-12-15T12:38:27.558Z,99111.73
2017-12-15T12:40:56.238Z,99110.91
2017-12-15T12:43:24.881Z,99117.59
2017-12-15T12:45:55.326Z,99122.23
2017-12-15T12:48:23.972Z,99127.34
2017-12-15T12:50:52.656Z,99122.23
2017-12-15T12:53:21.341Z,99125.17
2017-12-15T12:55:50.058Z,99127.64
2017-12-15T12:58:18.800Z,99124.77
2017-12-15T13:00:47.440Z,99125.59
2017-12-15T13:03:16.163Z,99127.30
2017-12-15T13:05:44.828Z,99130.70
2017-12-15T13:08:13.227Z,99140.83
2017-12-15T13:10:41.926Z,99138.70
2017-12-15T13:13:10.596Z,99138.21
2017-12-15T13:15:39.301Z,99143.66
2017-12-15T13:18:08.003Z,99150.45
2017-12-15T13:20:36.699Z,99163.05
2017-12-15T13:23:05.446Z,99160.88
2017-12-15T13:25:34.159Z,99161.73
2017-12-15T13:28:02.854Z,99166.00
2017-12-15T13:30:31.574Z,99165.92
2017-12-15T13:33:00.233Z,99163.01
2017-12-15T13:35:28.872Z,99160.84
2017-12-15T13:37:57.560Z,99168.91
2017-12-15T13:40:26.221Z,99156.17
2017-12-15T13:42:54.967Z,99159.58
2017-12-15T13:45:23.646Z,99162.94
2017-12-15T13:47:52.372Z,99164.73
2017-12-15T13:50:21.063Z,99169.32
2017-12-15T13:52:49.767Z,99167.67
2017-12-15T13:55:18.415Z,99174.59
2017-12-15T13:57:47.058Z,99178.32
2017-12-15T14:00:15.763Z,99180.75
2017-12-15T14:02:44.432Z,99180.83
2017-12-15T14:05:13.138Z,99183.33
2017-12-15T14:07:41.785Z,99186.73
2017-12-15T14:10:10.491Z,99179.52
2017-12-15T14:12:39.147Z,99187.17
2017-12-15T14:15:07.860Z,99190.53
2017-12-15T14:17:36.499Z,99190.16
2017-12-15T14:20:04.893Z,99198.97
2017-12-15T14:22:33.799Z,99190.95
2017-12-15T14:25:02.453Z,99203.64
2017-12-15T14:27:31.202Z,99206.25
2017-12-15T14:29:59.863Z,99201.22
2017-12-15T14:32:28.529Z,99211.33
2017-12-15T14:34:57.272Z,99218.95
2017-12-15T14:37:25.918Z,99213.02
2017-12-15T14:39:54.605Z,99216.94
2017-12-15T14:42:23.325Z,99221.56
2017-12-15T14:44:52.043Z,99223.25
2017-12-15T14:47:20.735Z,99225.83
2017-12-15T14:49:49.392Z,99224.11
2017-12-15T14:52:18.086Z,99224.52
2017-12-15T14:54:46.794Z,99219.81
2017-12-15T14:57:15.470Z,99231.66
2017-12-15T14:59:44.213Z,99230.45
2017-12-15T15:02:12.953Z,99243.97
2017-12-15T15:04:41.625Z,99250.36
2017-12-15T15:07:10.330Z,99254.76
2017-12-15T15:09:38.995Z,99258.16
2017-12-15T15:12:07.654Z,99266.59
2017-12-15T15:14:36.332Z,99264.91
2017-12-15T15:17:05.027Z,99266.97
2017-12-15T15:19:33.695Z,99274.14
2017-12-15T15:22:02.378Z,99274.63
2017-12-15T15:24:31.196Z,99280.56
2017-12-15T15:26:59.899Z,99282.28
2017-12-15T15:29:28.527Z,99284.41
2017-12-15T15:31:57.175Z,99289.48
2017-12-15T15:34:25.872Z,99288.66
2017-12-15T15:36:54.599Z,99292.92
2017-12-15T15:39:22.963Z,99295.46
2017-12-15T15:42:02.659Z,99298.86
2017-12-15T15:44:31.135Z,99302.70
2017-12-15T15:47:05.934Z,99312.86
2017-12-15T15:49:36.949Z,99318.88
2017-12-15T15:52:15.530Z,99318.39
2017-12-15T15:54:43.950Z,99315.06
2017-12-15T15:57:12.339Z,99323.57
2017-12-15T15:59:41.416Z,99320.20
2017-12-15T16:02:10.237Z,99324.88
2017-12-15T16:04:38.715Z,99331.67
2017-12-15T16:07:07.162Z,99327.97
2017-12-15T16:09:35.532Z,99331.29
2017-12-15T16:12:04.260Z,99326.70
2017-12-15T16:14:32.608Z,99325.97
2017-12-15T16:17:01.308Z,99326.42
2017-12-15T16:19:30.010Z,99325.94
2017-12-15T16:21:58.708Z,99324.30
2017-12-15T16:24:27.415Z,99331.91
2017-12-15T16:26:56.224Z,99331.09
2017-12-15T16:29:25.220Z,99334.07
2017-12-15T16:31:53.992Z,99338.27
2017-12-15T16:34:22.790Z,99335.75
2017-12-15T16:36:51.446Z,99337.84
2017-12-15T16:39:19.838Z,99337.91
2017-12-15T16:41:58.910Z,99340.05
2017-12-15T16:44:37.500Z,99345.70
2017-12-15T16:47:15.099Z,99345.30
2017-12-15T16:49:55.142Z,99355.48
2017-12-15T16:55:23.114Z,99356.03
2017-12-15T16:57:56.903Z,99358.98
2017-12-15T17:00:36.481Z,99355.62
2017-12-15T17:03:15.702Z,99359.83
2017-12-15T17:05:57.525Z,99365.36
2017-12-15T17:08:37.525Z,99363.67
2017-12-15T17:11:16.380Z,99370.88
2017-12-15T17:13:58.030Z,99372.62
2017-12-15T17:16:37.805Z,99376.88
2017-12-15T17:19:15.301Z,99374.31
2017-12-15T17:21:48.921Z,99373.11
2017-12-15T17:24:32.143Z,99386.63
2017-12-15T17:27:08.983Z,99385.87
2017-12-15T17:29:51.516Z,99390.09
2017-12-15T17:32:30.020Z,99390.56
2017-12-15T17:35:08.364Z,99391.01
2017-12-15T17:37:50.556Z,99396.91
2017-12-15T17:40:29.384Z,99396.94
2017-12-15T17:43:11.405Z,99398.69
2017-12-15T17:45:45.260Z,99396.56
2017-12-15T17:48:22.159Z,99402.09
2017-12-15T17:51:00.497Z,99402.94
2017-12-15T17:53:40.462Z,99394.95
2017-12-15T17:56:19.345Z,99400.47
2017-12-15T17:58:59.097Z,99405.52
2017-12-15T18:01:36.411Z,99408.12
2017-12-15T18:04:15.442Z,99405.58
2017-12-15T18:06:56.856Z,99407.67
2017-12-15T18:09:25.683Z,99409.39
2017-12-15T18:11:54.412Z,99416.55
2017-12-15T18:14:32.614Z,99421.66
2017-12-15T18:17:20.292Z,99418.72
2017-12-15T18:20:08.095Z,99426.81
2017-12-15T18:22:55.709Z,99424.40
2017-12-15T18:34:06.801Z,99430.33
2017-12-15T18:36:49.900Z,99442.58
2017-12-15T18:42:18.342Z,99448.25
2017-12-15T18:44:54.367Z,99448.22
2017-12-15T18:47:32.142Z,99445.34
2017-12-15T18:50:03.855Z,99447.78
2017-12-15T18:52:40.519Z,99452.98
2017-12-15T18:55:21.968Z,99452.06
2017-12-15T18:57:56.274Z,99451.23
2017-12-15T19:00:34.698Z,99448.70
2017-12-15T19:03:13.194Z,99450.38
2017-12-15T19:05:55.356Z,99447.37
2017-12-15T19:08:34.840Z,99451.72
2017-12-15T19:11:11.415Z,99458.88
2017-12-15T19:13:55.735Z,99465.27
2017-12-15T19:16:42.145Z,99457.64
2017-12-15T19:19:25.108Z,99465.67
2017-12-15T19:21:57.868Z,99463.14
2017-12-15T19:32:57.483Z,99472.46
2017-12-15T19:35:35.708Z,99478.80
2017-12-15T19:38:12.708Z,99477.56
2017-12-15T19:40:53.003Z,99475.41
2017-12-15T19:43:30.140Z,99482.61
2017-12-15T19:46:07.960Z,99483.44
2017-12-15T19:48:47.976Z,99483.02
2017-12-15T19:51:18.752Z,99480.95
2017-12-15T19:53:56.240Z,99486.89
2017-12-15T19:56:25.720Z,99488.95
2017-12-15T19:59:05.390Z,99494.86
2017-12-15T20:01:39.869Z,99495.30
2017-12-15T20:04:17.014Z,99489.81
2017-12-15T20:06:56.037Z,99490.22
2017-12-15T20:09:36.870Z,99496.98
2017-12-15T20:12:19.547Z,99503.77
2017-12-15T20:14:57.038Z,99504.63
2017-12-15T20:17:37.381Z,99510.59
2017-12-15T20:20:11.302Z,99518.17
2017-12-15T20:22:51.874Z,99517.31
2017-12-15T20:25:29.085Z,99519.85
2017-12-15T20:28:05.180Z,99522.39
2017-12-15T20:30:46.811Z,99522.48
2017-12-15T20:33:27.170Z,99522.00
2017-12-15T20:36:06.601Z,99524.92
2017-12-15T20:38:41.396Z,99525.38
2017-12-15T20:41:23.100Z,99531.71
2017-12-15T20:44:01.738Z,99528.34
2017-12-15T20:46:37.194Z,99532.98
2017-12-15T20:49:19.508Z,99526.61
2017-12-15T20:51:54.544Z,99527.08
2017-12-15T20:54:27.730Z,99529.17
2017-12-15T20:57:01.028Z,99527.08
2017-12-15T20:59:34.807Z,99526.64
2017-12-15T21:02:12.628Z,99534.28
2017-12-15T21:04:49.449Z,99538.91
2017-12-15T21:07:26.469Z,99536.37
2017-12-15T21:10:06.890Z,99534.72
2017-12-15T21:12:43.953Z,99535.14
2017-12-15T21:15:21.328Z,99531.71
2017-12-15T21:17:54.749Z,99530.06
2017-12-15T21:20:29.560Z,99522.89
2017-12-15T21:23:00.511Z,99527.52
2017-12-15T21:25:31.932Z,99524.55
2017-12-15T21:28:03.421Z,99531.33
2017-12-15T21:30:34.491Z,99529.23
2017-12-15T21:33:06.155Z,99530.50
2017-12-15T21:35:37.469Z,99533.45
2017-12-15T21:38:08.325Z,99531.36
2017-12-15T21:40:38.744Z,99540.66
2017-12-15T21:43:07.903Z,99547.00
2017-12-15T21:45:36.598Z,99545.28
2017-12-15T21:48:05.013Z,99543.64
2017-12-15T21:50:33.770Z,99548.68
2017-12-15T21:53:02.449Z,99546.14
2017-12-15T21:55:31.166Z,99552.08
2017-12-15T21:57:59.865Z,99552.08
2017-12-15T22:00:28.585Z,99549.16
2017-12-15T22:02:57.238Z,99552.48
2017-12-15T22:05:25.969Z,99552.93
2017-12-15T22:07:54.669Z,99554.61
2017-12-15T22:10:23.388Z,99554.61
2017-12-15T22:12:51.827Z,99559.27
2017-12-15T22:15:20.547Z,99561.78
2017-12-15T22:17:49.220Z,99560.10
2017-12-15T22:20:17.932Z,99549.56
2017-12-15T22:22:46.593Z,99549.50
2017-12-15T22:25:15.284Z,99544.88
2017-12-15T22:27:43.987Z,99545.70
2017-12-15T22:30:12.635Z,99547.41
2017-12-15T22:32:41.347Z,99544.02
2017-12-15T22:35:10.017Z,99538.09
2017-12-15T22:37:38.720Z,99541.48
2017-12-15T22:40:07.407Z,99547.44
2017-12-15T22:42:36.111Z,99548.27
2017-12-15T22:45:04.865Z,99551.31
2017-12-15T22:47:33.575Z,99554.26
2017-12-15T22:50:02.239Z,99551.31
2017-12-15T22:52:30.902Z,99553.41
2017-12-15T22:54:59.620Z,99553.84
2017-12-15T22:57:28.301Z,99560.63
2017-12-15T22:59:56.975Z,99556.00
2017-12-15T23:02:25.676Z,99561.94
2017-12-15T23:04:57.430Z,99562.76
2017-12-15T23:07:26.213Z,99565.70
2017-12-15T23:09:54.928Z,99565.33
2017-12-15T23:12:23.661Z,99569.55
2017-12-15T23:14:52.344Z,99566.98
2017-12-15T23:17:21.060Z,99574.14
2017-12-15T23:19:49.730Z,99573.26
2017-12-15T23:22:18.421Z,99566.53
2017-12-15T23:24:47.151Z,99564.82
2017-12-15T23:27:15.804Z,99564.82
2017-12-15T23:29:44.502Z,99562.70
2017-12-15T23:32:13.162Z,99563.97
2017-12-15T23:34:41.954Z,99559.34
2017-12-15T23:37:10.632Z,99557.66
2017-12-15T23:39:39.372Z,99563.14
2017-12-15T23:42:08.072Z,99567.77
2017-12-15T23:44:36.734Z,99570.69
2017-12-15T23:47:05.141Z,99571.11
2017-12-15T23:49:33.506Z,99573.61
2017-12-15T23:52:02.179Z,99571.52
2017-12-15T23:54:42.075Z,99579.10
2017-12-15T23:57:10.836Z,99581.23
2017-12-15T23:59:39.537Z,99583.77
